This is the latest recevied weather packets stored in our database for station/object IW2DGQ-3. If no packets are shown the sender has not sent any weather packets the latest 10 day(s).
| Time | Temp. | Humidity | Pressure | Rain* | Wind** | Luminosity | Snow |
|---|---|---|---|---|---|---|---|
| 1777567510 | 17.78° C | 27% | 1024.3 hPa | - | - | - | - |
| 1777566307 | 18.33° C | 27% | 1024.1 hPa | - | - | - | - |
| 1777565103 | 18.33° C | 27% | 1024.1 hPa | - | - | - | - |
| 1777563900 | 18.89° C | 28% | 1024.2 hPa | - | - | - | - |
| 1777561493 | 19.44° C | 27% | 1024.2 hPa | - | - | - | - |
| 1777560289 | 19.44° C | 27% | 1024.2 hPa | - | - | - | - |
| 1777559086 | 19.44° C | 28% | 1024.2 hPa | - | - | - | - |
| 1777557882 | 20° C | 30% | 1024.4 hPa | - | - | - | - |
| 1777555475 | 20° C | 31% | 1024.6 hPa | - | - | - | - |
| 1777553068 | 20° C | 32% | 1024.9 hPa | - | - | - | - |
| 1777551865 | 20° C | 31% | 1025.2 hPa | - | - | - | - |
| 1777548254 | 19.44° C | 32% | 1025.4 hPa | - | - | - | - |
| 1777545847 | 18.89° C | 31% | 1025.5 hPa | - | - | - | - |
| 1777538626 | 20.56° C | 37% | 1025.7 hPa | - | - | - | - |
| 1777537422 | 18.33° C | 41% | 1025.5 hPa | - | - | - | - |
| 1777535015 | 16.67° C | 42% | 1025.1 hPa | - | - | - | - |
| 1777533812 | 19.44° C | 36% | 1025.1 hPa | - | - | - | - |
| 1777532608 | 23.33° C | 32% | 1025 hPa | - | - | - | - |
| 1777530201 | 23.33° C | 39% | 1024.7 hPa | - | - | - | - |
| 1777528998 | 23.33° C | 42% | 1024.6 hPa | - | - | - | - |
| 1777524184 | 10° C | 69% | 1023.8 hPa | - | - | - | - |
| 1777522980 | 10° C | 71% | 1023.6 hPa | - | - | - | - |
| 1777521777 | 10° C | 72% | 1023.5 hPa | - | - | - | - |
| 1777520573 | 10° C | 72% | 1023.2 hPa | - | - | - | - |
| 1777519370 | 10° C | 75% | 1023 hPa | - | - | - | - |
* Rain since midnight (hover to see other rain measurements)
** Current wind speed in m/s (hover to see current wind gust speed)